Time;durP1;ratioP1;P1;durP2;ratioP2;P2;SDS_P1;SDS_P2;PMS_P1;PMS_P2;Temp;Humidity;BMP_temperature;BMP_pressure;BME280_temperature;BME280_humidity;BME280_pressure;Samples;Min_cycle;Max_cycle;Signal;HPM_P1;HPM_P2
2021/06/02 00:00:15;;;;;;;7.28;5.07;;;;;;;;;;143727;674;46013;-60
2021/06/02 00:02:56;;;;;;;8.70;5.40;;;;;;;;;;143726;633;46020;-61
2021/06/02 00:05:24;;;;;;;10.30;6.35;;;;;;;;;;143732;644;46020;-60
2021/06/02 00:07:51;;;;;;;8.68;5.40;;;;;;;;;;143727;621;46022;-61
2021/06/02 00:10:20;;;;;;;13.30;7.57;;;;;;;;;;143728;589;46012;-61
2021/06/02 00:12:48;;;;;;;9.77;5.75;;;;;;;;;;143727;600;46020;-60
2021/06/02 00:15:15;;;;;;;7.05;5.18;;;;;;;;;;143730;575;46020;-62
2021/06/02 00:17:42;;;;;;;8.63;5.22;;;;;;;;;;143728;564;46022;-62
2021/06/02 00:20:11;;;;;;;7.00;5.07;;;;;;;;;;143728;642;46021;-60
2021/06/02 00:22:39;;;;;;;8.88;6.25;;;;;;;;;;143728;591;46020;-60
2021/06/02 00:25:07;;;;;;;16.52;10.68;;;;;;;;;;143729;610;46020;-60
2021/06/02 00:27:36;;;;;;;17.10;11.50;;;;;;;;;;143722;564;46022;-60
2021/06/02 00:30:05;;;;;;;13.70;7.93;;;;;;;;;;143725;582;46013;-62
2021/06/02 00:32:34;;;;;;;17.20;10.20;;;;;;;;;;143730;608;46020;-61
2021/06/02 00:35:03;;;;;;;16.77;9.82;;;;;;;;;;143729;623;46020;-63
2021/06/02 00:37:31;;;;;;;12.05;8.25;;;;;;;;;;143727;603;46022;-63
2021/06/02 00:39:58;;;;;;;10.73;6.95;;;;;;;;;;143728;639;46012;-62
2021/06/02 00:42:32;;;;;;;14.05;8.73;;;;;;;;;;143727;628;46020;-63
2021/06/02 00:45:00;;;;;;;11.30;7.10;;;;;;;;;;143730;579;46021;-63
2021/06/02 00:47:27;;;;;;;10.77;8.52;;;;;;;;;;143727;587;46023;-62
2021/06/02 00:49:54;;;;;;;16.83;10.63;;;;;;;;;;143727;664;46012;-63
2021/06/02 00:52:21;;;;;;;16.85;11.55;;;;;;;;;;143723;664;46020;-61
2021/06/02 00:54:48;;;;;;;14.63;8.43;;;;;;;;;;143729;569;46020;-61
2021/06/02 00:57:20;;;;;;;12.93;8.57;;;;;;;;;;143726;609;46043;-63
2021/06/02 01:00:12;;;;;;;13.82;8.40;;;;;;;;;;143724;645;46013;-62
2021/06/02 01:02:46;;;;;;;7.70;6.05;;;;;;;;;;143728;651;46020;-62
2021/06/02 01:05:13;;;;;;;9.38;6.78;;;;;;;;;;143727;601;46020;-63
2021/06/02 01:07:41;;;;;;;11.68;7.62;;;;;;;;;;143726;571;46022;-63
2021/06/02 01:10:09;;;;;;;16.95;10.32;;;;;;;;;;143725;569;46012;-60
2021/06/02 01:12:39;;;;;;;18.95;11.73;;;;;;;;;;143727;580;46020;-63
2021/06/02 01:15:08;;;;;;;14.30;9.38;;;;;;;;;;143725;570;46021;-60
2021/06/02 01:17:35;;;;;;;16.05;11.05;;;;;;;;;;143717;674;46022;-63
2021/06/02 01:20:04;;;;;;;20.08;12.48;;;;;;;;;;143724;573;46012;-62
2021/06/02 01:22:34;;;;;;;22.10;14.87;;;;;;;;;;143726;584;46020;-60
2021/06/02 01:25:18;;;;;;;15.98;10.88;;;;;;;;;;143727;577;46020;-60
2021/06/02 01:27:48;;;;;;;15.13;10.32;;;;;;;;;;143725;594;46022;-60
2021/06/02 01:30:19;;;;;;;23.55;12.60;;;;;;;;;;143726;565;46012;-63
2021/06/02 01:33:14;;;;;;;15.70;11.27;;;;;;;;;;143726;599;46020;-63
2021/06/02 01:36:04;;;;;;;19.83;13.63;;;;;;;;;;143727;609;46022;-63
2021/06/02 01:39:28;;;;;;;19.85;12.60;;;;;;;;;;143726;580;46023;-63
2021/06/02 01:42:21;;;;;;;26.25;14.73;;;;;;;;;;143724;563;46020;-63
2021/06/02 01:45:20;;;;;;;19.15;13.07;;;;;;;;;;143722;587;46021;-62
2021/06/02 01:48:45;;;;;;;18.02;12.77;;;;;;;;;;143728;585;46022;-62
2021/06/02 01:52:07;;;;;;;21.27;10.40;;;;;;;;;;143726;583;46024;-61
2021/06/02 01:55:11;;;;;;;15.90;11.85;;;;;;;;;;143732;606;46012;-61
2021/06/02 01:58:26;;;;;;;16.17;9.50;;;;;;;;;;143731;575;45914;-60
2021/06/02 02:01:37;;;;;;;12.68;8.63;;;;;;;;;;143733;577;46021;-60
2021/06/02 02:05:13;;;;;;;40.00;24.60;;;;;;;;;;143732;616;46022;-63
2021/06/02 02:08:21;;;;;;;64.53;39.75;;;;;;;;;;143731;601;46013;-63
2021/06/02 02:10:54;;;;;;;46.08;27.50;;;;;;;;;;143731;574;46020;-63
2021/06/02 02:14:07;;;;;;;40.22;22.40;;;;;;;;;;143734;588;45021;-63
2021/06/02 02:17:43;;;;;;;21.90;15.15;;;;;;;;;;143733;654;46023;-63
2021/06/02 02:20:23;;;;;;;17.17;12.02;;;;;;;;;;143730;631;46012;-60
2021/06/02 02:23:09;;;;;;;22.70;13.00;;;;;;;;;;143734;661;45914;-62
2021/06/02 02:26:17;;;;;;;13.25;8.13;;;;;;;;;;143731;625;46010;-63
2021/06/02 02:29:12;;;;;;;14.32;9.13;;;;;;;;;;143733;576;46021;-60
2021/06/02 02:32:30;;;;;;;19.03;10.00;;;;;;;;;;143730;600;47012;-64
2021/06/02 02:35:31;;;;;;;15.73;9.82;;;;;;;;;;143730;587;46012;-60
2021/06/02 02:38:28;;;;;;;21.08;12.27;;;;;;;;;;143737;645;45023;-62
2021/06/02 02:41:39;;;;;;;27.02;15.30;;;;;;;;;;143732;614;47012;-60
2021/06/02 02:44:32;;;;;;;19.08;13.18;;;;;;;;;;143730;597;46920;-62
2021/06/02 02:47:19;;;;;;;23.70;13.15;;;;;;;;;;143731;658;45022;-60
2021/06/02 02:50:26;;;;;;;20.73;13.30;;;;;;;;;;143736;563;45020;-63
2021/06/02 02:53:15;;;;;;;23.45;13.18;;;;;;;;;;143732;588;46020;-60
2021/06/02 02:55:42;;;;;;;18.85;12.25;;;;;;;;;;143724;629;46012;-62
2021/06/02 02:58:50;;;;;;;23.98;13.80;;;;;;;;;;143724;612;46020;-60
2021/06/02 03:01:44;;;;;;;20.85;12.70;;;;;;;;;;143727;569;46020;-63
2021/06/02 03:04:24;;;;;;;26.48;15.50;;;;;;;;;;143724;584;47033;-60
2021/06/02 03:06:57;;;;;;;31.83;16.70;;;;;;;;;;143725;611;46013;-60
2021/06/02 03:09:57;;;;;;;49.05;25.12;;;;;;;;;;143727;619;46020;-64
2021/06/02 03:13:16;;;;;;;79.57;44.42;;;;;;;;;;143727;632;46022;-64
2021/06/02 03:15:47;;;;;;;48.50;27.90;;;;;;;;;;143719;575;46023;-60
2021/06/02 03:18:46;;;;;;;50.00;29.35;;;;;;;;;;143725;600;46012;-61
2021/06/02 03:22:16;;;;;;;26.05;15.73;;;;;;;;;;143724;569;46020;-63
2021/06/02 03:25:29;;;;;;;39.58;23.42;;;;;;;;;;143725;569;46020;-62
2021/06/02 03:28:19;;;;;;;30.42;19.35;;;;;;;;;;143726;565;46022;-60
2021/06/02 03:31:25;;;;;;;21.70;13.10;;;;;;;;;;143722;643;47012;-62
2021/06/02 03:34:11;;;;;;;;;;;;;;;;;;143733;975;46022;-60
2021/06/02 03:37:14;;;;;;;24.17;14.07;;;;;;;;;;143732;609;46021;-62
2021/06/02 03:40:11;;;;;;;20.58;14.65;;;;;;;;;;143728;664;46022;-60
2021/06/02 03:43:09;;;;;;;22.10;15.30;;;;;;;;;;143726;587;46013;-61
2021/06/02 03:46:21;;;;;;;21.58;14.27;;;;;;;;;;143720;626;46023;-61
2021/06/02 03:49:10;;;;;;;22.40;15.00;;;;;;;;;;143728;576;46020;-59
2021/06/02 03:51:50;;;;;;;18.77;13.07;;;;;;;;;;143725;628;46023;-61
2021/06/02 03:54:55;;;;;;;22.55;12.00;;;;;;;;;;143725;617;46012;-60
2021/06/02 03:57:38;;;;;;;14.55;9.75;;;;;;;;;;143724;578;45914;-61
2021/06/02 04:00:11;;;;;;;17.58;9.90;;;;;;;;;;143727;634;46021;-62
2021/06/02 04:03:16;;;;;;;13.88;9.10;;;;;;;;;;143726;627;46022;-59
2021/06/02 04:06:13;;;;;;;17.30;10.17;;;;;;;;;;143724;571;46013;-61
2021/06/02 04:08:48;;;;;;;12.65;8.15;;;;;;;;;;143725;611;46020;-62
2021/06/02 04:11:29;;;;;;;12.15;8.43;;;;;;;;;;143727;573;46045;-62
2021/06/02 04:14:29;;;;;;;12.88;9.65;;;;;;;;;;143715;651;47022;-60
2021/06/02 04:16:57;;;;;;;13.30;9.30;;;;;;;;;;143726;639;46012;-61
2021/06/02 04:19:31;;;;;;;15.48;9.80;;;;;;;;;;143725;652;46020;-62
2021/06/02 04:22:07;;;;;;;20.08;11.32;;;;;;;;;;143728;737;46021;-63
2021/06/02 04:24:36;;;;;;;12.57;9.50;;;;;;;;;;143725;578;46022;-59
2021/06/02 04:27:05;;;;;;;21.50;14.38;;;;;;;;;;143725;566;46013;-60
2021/06/02 04:29:32;;;;;;;23.00;14.73;;;;;;;;;;143724;686;46021;-60
2021/06/02 04:32:07;;;;;;;24.42;13.98;;;;;;;;;;143728;582;46020;-58
2021/06/02 04:34:35;;;;;;;25.08;14.43;;;;;;;;;;143726;567;46022;-61
2021/06/02 04:37:04;;;;;;;21.58;12.55;;;;;;;;;;143721;607;46020;-58
2021/06/02 04:39:32;;;;;;;17.40;11.00;;;;;;;;;;143720;583;46020;-58
2021/06/02 04:42:04;;;;;;;25.30;12.13;;;;;;;;;;143727;581;46020;-61
2021/06/02 04:44:32;;;;;;;16.73;9.93;;;;;;;;;;143725;594;46039;-58
2021/06/02 04:47:00;;;;;;;13.15;9.23;;;;;;;;;;143725;630;46012;-61
2021/06/02 04:50:09;;;;;;;14.05;9.45;;;;;;;;;;143725;570;46020;-58
2021/06/02 04:53:13;;;;;;;15.23;10.27;;;;;;;;;;143727;569;46021;-59
2021/06/02 04:56:07;;;;;;;26.75;20.42;;;;;;;;;;143725;613;46022;-60
2021/06/02 04:59:14;;;;;;;23.23;17.23;;;;;;;;;;143727;635;46013;-60
2021/06/02 05:02:11;;;;;;;23.90;16.65;;;;;;;;;;143724;585;46020;-61
2021/06/02 05:05:20;;;;;;;21.10;13.60;;;;;;;;;;143728;688;46022;-60
2021/06/02 05:08:40;;;;;;;24.12;14.60;;;;;;;;;;143718;572;46025;-59
2021/06/02 05:12:07;;;;;;;19.33;13.68;;;;;;;;;;143724;647;46021;-59
2021/06/02 05:15:16;;;;;;;19.33;12.40;;;;;;;;;;143726;604;46021;-59
2021/06/02 05:18:33;;;;;;;22.87;14.07;;;;;;;;;;143729;590;46020;-61
2021/06/02 05:25:23;;;;;;;24.70;15.88;;;;;;;;;;143727;664;45917;-61
2021/06/02 05:28:44;;;;;;;23.77;17.02;;;;;;;;;;143723;593;46023;-61
2021/06/02 05:32:04;;;;;;;19.80;13.93;;;;;;;;;;143726;623;46020;-57
2021/06/02 05:35:21;;;;;;;24.60;15.85;;;;;;;;;;143726;694;46022;-60
2021/06/02 05:38:38;;;;;;;19.33;12.98;;;;;;;;;;143724;598;46012;-61
2021/06/02 05:41:16;;;;;;;18.98;11.85;;;;;;;;;;143721;614;46022;-59
2021/06/02 05:44:17;;;;;;;18.67;12.95;;;;;;;;;;143727;614;46021;-60
2021/06/02 05:47:41;;;;;;;21.45;13.55;;;;;;;;;;143725;849;46024;-62
2021/06/02 05:50:45;;;;;;;22.48;12.37;;;;;;;;;;143723;571;46013;-61
2021/06/02 05:53:56;;;;;;;18.15;11.27;;;;;;;;;;143724;571;46020;-63
2021/06/02 05:57:07;;;;;;;25.33;12.77;;;;;;;;;;143728;569;46020;-63
2021/06/02 06:00:10;;;;;;;20.67;12.68;;;;;;;;;;143724;616;47025;-62
2021/06/02 06:03:31;;;;;;;20.50;12.93;;;;;;;;;;143726;601;46012;-62
2021/06/02 06:06:29;;;;;;;18.17;11.25;;;;;;;;;;143724;771;46021;-61
2021/06/02 06:09:47;;;;;;;13.75;10.98;;;;;;;;;;143728;604;46020;-63
2021/06/02 06:13:06;;;;;;;11.00;8.50;;;;;;;;;;143718;682;46022;-62
2021/06/02 06:16:14;;;;;;;13.35;10.27;;;;;;;;;;143724;569;46020;-63
2021/06/02 06:19:21;;;;;;;14.25;9.10;;;;;;;;;;143724;610;46020;-62
2021/06/02 06:22:29;;;;;;;12.02;8.25;;;;;;;;;;143727;584;46021;-60
2021/06/02 06:25:26;;;;;;;14.25;8.43;;;;;;;;;;143723;703;47020;-60
2021/06/02 06:28:30;;;;;;;13.27;7.97;;;;;;;;;;143724;564;46013;-61
2021/06/02 06:30:58;;;;;;;16.85;10.20;;;;;;;;;;143725;595;46020;-61
2021/06/02 06:33:28;;;;;;;12.00;7.75;;;;;;;;;;143726;572;47020;-62
2021/06/02 06:35:56;;;;;;;13.40;7.53;;;;;;;;;;143724;593;47020;-63
2021/06/02 06:39:02;;;;;;;10.75;6.28;;;;;;;;;;143724;564;46012;-61
2021/06/02 06:41:32;;;;;;;13.82;6.72;;;;;;;;;;143720;575;46022;-62
2021/06/02 06:44:01;;;;;;;10.98;6.95;;;;;;;;;;143727;572;46021;-61
2021/06/02 06:46:30;;;;;;;11.07;7.18;;;;;;;;;;143725;677;46022;-63
2021/06/02 06:49:00;;;;;;;11.07;6.10;;;;;;;;;;143725;624;46013;-62
2021/06/02 06:51:29;;;;;;;10.50;5.60;;;;;;;;;;143726;585;46913;-60
2021/06/02 06:53:57;;;;;;;8.45;6.47;;;;;;;;;;143728;592;46020;-61
2021/06/02 06:56:27;;;;;;;7.15;4.53;;;;;;;;;;143726;605;46022;-60
2021/06/02 06:58:55;;;;;;;11.50;7.10;;;;;;;;;;143725;565;46020;-61
2021/06/02 07:01:22;;;;;;;5.55;3.78;;;;;;;;;;143726;699;46020;-62
2021/06/02 07:03:51;;;;;;;14.80;5.93;;;;;;;;;;143727;596;46020;-61
2021/06/02 07:06:18;;;;;;;11.75;6.05;;;;;;;;;;143718;620;46023;-61
2021/06/02 07:08:46;;;;;;;15.10;6.72;;;;;;;;;;143727;632;46012;-62
2021/06/02 07:11:17;;;;;;;9.32;4.70;;;;;;;;;;143727;591;46020;-61
2021/06/02 07:13:46;;;;;;;7.80;4.57;;;;;;;;;;143727;590;46021;-61
2021/06/02 07:16:14;;;;;;;9.00;5.25;;;;;;;;;;143726;602;46022;-61
2021/06/02 07:18:45;;;;;;;9.20;5.22;;;;;;;;;;143725;581;46012;-62
2021/06/02 07:21:13;;;;;;;10.05;5.47;;;;;;;;;;143726;619;46021;-61
2021/06/02 07:23:43;;;;;;;9.05;4.97;;;;;;;;;;143728;571;46020;-60
2021/06/02 07:26:10;;;;;;;10.82;6.00;;;;;;;;;;143726;581;46022;-60
2021/06/02 07:28:40;;;;;;;8.50;4.68;;;;;;;;;;143720;564;47021;-62
2021/06/02 07:31:09;;;;;;;7.25;4.80;;;;;;;;;;143723;566;46020;-61
2021/06/02 07:33:37;;;;;;;7.95;4.82;;;;;;;;;;143730;618;46020;-62
2021/06/02 07:36:05;;;;;;;8.38;4.28;;;;;;;;;;143726;607;46023;-63
2021/06/02 07:38:33;;;;;;;9.00;4.37;;;;;;;;;;143726;565;46012;-63
2021/06/02 07:41:00;;;;;;;8.20;5.00;;;;;;;;;;143727;611;46020;-61
2021/06/02 07:43:27;;;;;;;8.07;4.37;;;;;;;;;;143727;578;46021;-62
2021/06/02 07:45:54;;;;;;;10.88;5.40;;;;;;;;;;143726;569;46022;-64
2021/06/02 07:48:20;;;;;;;8.02;4.00;;;;;;;;;;143723;575;46920;-62
2021/06/02 07:50:48;;;;;;;6.35;4.53;;;;;;;;;;143718;739;47013;-64
2021/06/02 07:53:15;;;;;;;5.82;4.05;;;;;;;;;;143729;565;46020;-63
2021/06/02 07:55:42;;;;;;;3.75;2.90;;;;;;;;;;143722;601;47022;-63
2021/06/02 07:58:09;;;;;;;10.23;4.78;;;;;;;;;;143725;580;46920;-60
2021/06/02 08:00:36;;;;;;;4.90;2.70;;;;;;;;;;143726;609;46020;-61
2021/06/02 08:03:04;;;;;;;8.38;5.20;;;;;;;;;;143729;586;46020;-61
2021/06/02 08:05:31;;;;;;;6.57;3.42;;;;;;;;;;143726;626;47020;-61
2021/06/02 08:07:58;;;;;;;6.25;3.55;;;;;;;;;;143723;664;47012;-61
2021/06/02 08:10:25;;;;;;;14.70;9.38;;;;;;;;;;143725;564;46020;-61
2021/06/02 08:12:53;;;;;;;13.43;9.23;;;;;;;;;;143727;577;46021;-61
2021/06/02 08:15:20;;;;;;;6.37;4.53;;;;;;;;;;143727;577;46022;-59
2021/06/02 08:17:48;;;;;;;14.40;9.15;;;;;;;;;;143725;666;46012;-59
2021/06/02 08:20:16;;;;;;;9.65;5.80;;;;;;;;;;143722;603;46021;-57
2021/06/02 08:22:44;;;;;;;12.05;7.03;;;;;;;;;;143730;644;46020;-60
2021/06/02 08:25:13;;;;;;;8.35;4.65;;;;;;;;;;143727;566;46022;-60
2021/06/02 08:27:40;;;;;;;7.07;3.15;;;;;;;;;;143727;577;46012;-60
2021/06/02 08:30:09;;;;;;;3.55;2.70;;;;;;;;;;143726;578;46020;-60
2021/06/02 08:32:37;;;;;;;7.95;4.78;;;;;;;;;;143730;564;46020;-61
2021/06/02 08:35:05;;;;;;;5.32;3.37;;;;;;;;;;143727;600;46023;-61
2021/06/02 08:37:32;;;;;;;8.85;6.40;;;;;;;;;;143727;607;46012;-60
2021/06/02 08:39:59;;;;;;;5.00;3.37;;;;;;;;;;143725;570;46020;-60
2021/06/02 08:42:27;;;;;;;2.65;2.35;;;;;;;;;;143729;614;46021;-60
2021/06/02 08:44:54;;;;;;;13.35;3.62;;;;;;;;;;143721;640;46022;-62
2021/06/02 08:47:21;;;;;;;2.60;2.40;;;;;;;;;;143726;625;46013;-62
2021/06/02 08:49:48;;;;;;;10.55;4.47;;;;;;;;;;143728;586;46021;-59
2021/06/02 08:52:15;;;;;;;7.55;5.22;;;;;;;;;;143730;590;46020;-59
2021/06/02 08:54:43;;;;;;;7.30;3.87;;;;;;;;;;143728;576;46022;-60
2021/06/02 08:57:11;;;;;;;4.93;3.58;;;;;;;;;;143728;603;46012;-59
2021/06/02 08:59:38;;;;;;;8.50;5.62;;;;;;;;;;143726;631;46020;-61
2021/06/02 09:02:06;;;;;;;5.47;3.90;;;;;;;;;;143730;608;46020;-59
2021/06/02 09:04:34;;;;;;;10.23;4.95;;;;;;;;;;143727;583;46023;-60
2021/06/02 09:07:06;;;;;;;8.15;5.37;;;;;;;;;;143725;618;46919;-61
2021/06/02 09:09:33;;;;;;;7.43;4.03;;;;;;;;;;143724;597;46030;-59
2021/06/02 09:12:14;;;;;;;7.12;4.18;;;;;;;;;;143730;569;46021;-59
2021/06/02 09:14:43;;;;;;;7.60;3.90;;;;;;;;;;143727;607;46022;-60
2021/06/02 09:17:12;;;;;;;7.18;3.97;;;;;;;;;;143729;571;46012;-58
2021/06/02 09:19:46;;;;;;;4.70;2.47;;;;;;;;;;143726;644;46021;-60
2021/06/02 09:22:21;;;;;;;4.32;3.17;;;;;;;;;;143729;566;46020;-60
2021/06/02 09:25:07;;;;;;;6.37;3.60;;;;;;;;;;143725;579;47020;-59
2021/06/02 09:27:54;;;;;;;4.70;2.97;;;;;;;;;;143726;623;46020;-61
2021/06/02 09:30:24;;;;;;;5.00;2.95;;;;;;;;;;143726;569;46020;-61
2021/06/02 09:32:56;;;;;;;6.95;4.85;;;;;;;;;;143723;646;46021;-60
2021/06/02 09:35:41;;;;;;;9.13;5.22;;;;;;;;;;143721;620;46023;-60
2021/06/02 09:38:21;;;;;;;6.53;5.03;;;;;;;;;;143725;570;47012;-61
2021/06/02 09:40:54;;;;;;;7.95;4.40;;;;;;;;;;143725;567;46020;-60
2021/06/02 09:43:31;;;;;;;6.60;3.62;;;;;;;;;;143730;600;46021;-61
2021/06/02 09:46:05;;;;;;;4.00;3.00;;;;;;;;;;143727;570;46022;-60
2021/06/02 09:48:57;;;;;;;5.00;3.50;;;;;;;;;;143725;569;46013;-61
2021/06/02 09:51:33;;;;;;;3.92;2.60;;;;;;;;;;143725;591;46020;-62
2021/06/02 09:54:01;;;;;;;4.87;3.37;;;;;;;;;;143730;649;46020;-61
2021/06/02 09:56:52;;;;;;;4.32;3.30;;;;;;;;;;143727;570;47021;-59
2021/06/02 09:59:19;;;;;;;7.62;5.32;;;;;;;;;;143726;579;46020;-62
2021/06/02 10:01:54;;;;;;;6.53;3.97;;;;;;;;;;143725;614;46020;-58
2021/06/02 10:04:29;;;;;;;7.53;3.28;;;;;;;;;;143729;612;46021;-58
2021/06/02 10:06:56;;;;;;;6.43;3.65;;;;;;;;;;143724;569;47022;-60
2021/06/02 10:09:34;;;;;;;5.97;2.80;;;;;;;;;;143727;592;46012;-60
2021/06/02 10:12:07;;;;;;;5.18;3.37;;;;;;;;;;143728;570;46021;-60
2021/06/02 10:14:37;;;;;;;8.35;3.33;;;;;;;;;;143729;602;46020;-60
2021/06/02 10:17:05;;;;;;;8.35;3.90;;;;;;;;;;143726;600;47021;-62
2021/06/02 10:19:44;;;;;;;7.18;3.40;;;;;;;;;;143727;584;47012;-61
2021/06/02 10:22:30;;;;;;;5.25;3.55;;;;;;;;;;143729;575;46020;-60
2021/06/02 10:25:01;;;;;;;12.65;4.47;;;;;;;;;;143729;565;46020;-61
2021/06/02 10:27:29;;;;;;;7.62;3.53;;;;;;;;;;143721;598;46023;-61
2021/06/02 10:29:56;;;;;;;10.52;5.25;;;;;;;;;;143724;566;47012;-60
2021/06/02 10:32:25;;;;;;;11.25;7.20;;;;;;;;;;143727;604;46020;-60
2021/06/02 10:34:52;;;;;;;8.80;4.28;;;;;;;;;;143729;654;46021;-59
2021/06/02 10:37:21;;;;;;;3.78;3.15;;;;;;;;;;143727;589;46022;-61
2021/06/02 10:40:10;;;;;;;5.97;2.33;;;;;;;;;;143728;586;46013;-61
2021/06/02 10:43:01;;;;;;;4.93;3.15;;;;;;;;;;143727;589;46021;-59
2021/06/02 10:45:32;;;;;;;7.65;4.62;;;;;;;;;;143728;590;46020;-60
2021/06/02 10:48:01;;;;;;;7.28;4.43;;;;;;;;;;143726;564;47021;-60
2021/06/02 10:50:47;;;;;;;7.72;4.82;;;;;;;;;;143727;603;46012;-59
2021/06/02 10:53:23;;;;;;;6.30;4.82;;;;;;;;;;143726;626;46020;-61
2021/06/02 10:55:56;;;;;;;5.45;3.40;;;;;;;;;;143730;590;46021;-60
2021/06/02 10:58:33;;;;;;;5.53;3.10;;;;;;;;;;143729;604;46023;-60
2021/06/02 11:01:11;;;;;;;5.90;3.25;;;;;;;;;;143724;575;46020;-61
2021/06/02 11:03:40;;;;;;;7.72;4.20;;;;;;;;;;143728;571;46021;-61
2021/06/02 11:06:37;;;;;;;4.85;3.62;;;;;;;;;;143722;573;48020;-63
2021/06/02 11:09:13;;;;;;;5.90;3.87;;;;;;;;;;143727;592;46054;-64
2021/06/02 11:11:44;;;;;;;6.50;3.17;;;;;;;;;;143728;744;46012;-64
2021/06/02 11:14:29;;;;;;;3.70;3.22;;;;;;;;;;143728;574;46020;-64
2021/06/02 11:17:02;;;;;;;;;;;;;;;;;;143734;969;46022;-63
2021/06/02 11:19:43;;;;;;;4.85;2.90;;;;;;;;;;143730;564;47023;-63
2021/06/02 11:22:14;;;;;;;7.87;4.00;;;;;;;;;;143726;590;46012;-62
2021/06/02 11:24:43;;;;;;;7.50;3.90;;;;;;;;;;143726;587;46020;-63
2021/06/02 11:27:31;;;;;;;8.45;4.90;;;;;;;;;;143729;635;46021;-62
2021/06/02 11:30:07;;;;;;;5.45;3.62;;;;;;;;;;143725;563;47022;-63
2021/06/02 11:32:47;;;;;;;7.35;4.00;;;;;;;;;;143727;584;46012;-62
2021/06/02 11:35:16;;;;;;;9.38;4.32;;;;;;;;;;143728;704;46022;-62
2021/06/02 11:37:44;;;;;;;6.90;3.20;;;;;;;;;;143730;574;46018;-62
2021/06/02 11:40:13;;;;;;;9.65;4.75;;;;;;;;;;143727;577;46022;-63
2021/06/02 11:42:43;;;;;;;5.15;3.35;;;;;;;;;;143727;663;46012;-61
2021/06/02 11:45:21;;;;;;;6.72;3.45;;;;;;;;;;143722;577;46020;-61
2021/06/02 11:47:50;;;;;;;10.32;4.18;;;;;;;;;;143730;614;46021;-62
2021/06/02 11:50:21;;;;;;;6.40;3.70;;;;;;;;;;143728;581;46023;-63
2021/06/02 11:53:02;;;;;;;7.85;4.03;;;;;;;;;;143726;565;46012;-63
2021/06/02 11:55:32;;;;;;;15.25;4.55;;;;;;;;;;143728;711;46021;-63
2021/06/02 11:57:59;;;;;;;11.90;4.07;;;;;;;;;;143728;647;46020;-63
2021/06/02 12:00:28;;;;;;;8.35;4.40;;;;;;;;;;143728;673;46022;-62
2021/06/02 12:03:03;;;;;;;10.52;4.43;;;;;;;;;;143728;569;46012;-62
2021/06/02 12:05:35;;;;;;;11.18;4.32;;;;;;;;;;143727;574;46020;-62
2021/06/02 12:08:07;;;;;;;7.35;3.47;;;;;;;;;;143728;588;46020;-62
2021/06/02 12:10:37;;;;;;;8.30;3.50;;;;;;;;;;143722;622;46023;-62
2021/06/02 12:13:05;;;;;;;9.18;4.15;;;;;;;;;;143726;593;47012;-62
2021/06/02 12:15:46;;;;;;;12.30;4.00;;;;;;;;;;143728;589;46020;-62
2021/06/02 12:18:56;;;;;;;9.18;3.85;;;;;;;;;;143728;573;46021;-62
2021/06/02 12:21:28;;;;;;;9.50;4.30;;;;;;;;;;143727;569;46024;-62
2021/06/02 12:24:09;;;;;;;9.02;4.18;;;;;;;;;;143726;596;46013;-61
2021/06/02 12:26:44;;;;;;;10.05;3.62;;;;;;;;;;143728;586;46021;-61
2021/06/02 12:29:13;;;;;;;10.95;5.25;;;;;;;;;;143728;633;46020;-62
2021/06/02 12:31:46;;;;;;;8.82;3.92;;;;;;;;;;143728;592;46022;-62
2021/06/02 12:34:21;;;;;;;10.07;4.90;;;;;;;;;;143727;712;46012;-62
2021/06/02 12:36:53;;;;;;;11.95;5.03;;;;;;;;;;143723;569;46020;-62
2021/06/02 12:39:28;;;;;;;6.20;4.07;;;;;;;;;;143730;576;46020;-63
2021/06/02 12:41:56;;;;;;;8.60;4.07;;;;;;;;;;143726;564;46028;-63
2021/06/02 12:44:29;;;;;;;6.53;3.72;;;;;;;;;;143727;582;46012;-63
2021/06/02 12:47:01;;;;;;;5.37;3.33;;;;;;;;;;143725;570;46020;-64
2021/06/02 12:49:29;;;;;;;6.03;3.45;;;;;;;;;;143729;590;46020;-62
2021/06/02 12:51:57;;;;;;;7.32;4.22;;;;;;;;;;143728;566;46022;-62
2021/06/02 12:54:31;;;;;;;8.27;4.22;;;;;;;;;;143726;570;46013;-62
2021/06/02 12:57:00;;;;;;;8.90;3.70;;;;;;;;;;143726;569;46020;-62
2021/06/02 12:59:29;;;;;;;4.75;3.70;;;;;;;;;;143730;587;46020;-62
2021/06/02 13:02:00;;;;;;;7.53;3.87;;;;;;;;;;143723;579;46022;-62
2021/06/02 13:04:29;;;;;;;10.63;3.90;;;;;;;;;;143727;587;46012;-62
2021/06/02 13:06:57;;;;;;;9.75;4.82;;;;;;;;;;143729;590;46020;-62
2021/06/02 13:09:25;;;;;;;5.82;3.72;;;;;;;;;;143729;610;46020;-62
2021/06/02 13:11:53;;;;;;;9.38;4.20;;;;;;;;;;143726;596;47020;-63
2021/06/02 13:14:34;;;;;;;7.12;4.03;;;;;;;;;;143728;691;46012;-63
2021/06/02 13:17:01;;;;;;;8.73;4.12;;;;;;;;;;143726;583;46021;-63
2021/06/02 13:19:42;;;;;;;7.37;3.67;;;;;;;;;;143730;600;46020;-63
2021/06/02 13:22:22;;;;;;;9.07;3.90;;;;;;;;;;143727;600;46022;-63
2021/06/02 13:24:50;;;;;;;6.15;4.12;;;;;;;;;;143725;583;46021;-63
2021/06/02 13:27:21;;;;;;;8.93;4.22;;;;;;;;;;143727;567;46020;-64
2021/06/02 13:30:23;;;;;;;7.85;4.25;;;;;;;;;;143728;613;46020;-62
2021/06/02 13:32:57;;;;;;;5.53;3.67;;;;;;;;;;143724;615;46023;-62
2021/06/02 13:35:24;;;;;;;7.40;3.58;;;;;;;;;;143726;579;46012;-62
2021/06/02 13:37:51;;;;;;;7.70;3.67;;;;;;;;;;143726;573;46020;-62
2021/06/02 13:40:21;;;;;;;7.80;3.37;;;;;;;;;;143728;596;46021;-62
2021/06/02 13:43:19;;;;;;;6.43;3.65;;;;;;;;;;143721;569;47022;-63
2021/06/02 13:46:08;;;;;;;9.05;4.00;;;;;;;;;;143725;677;46013;-63
2021/06/02 13:48:41;;;;;;;7.85;3.62;;;;;;;;;;143724;614;46020;-63
2021/06/02 13:51:42;;;;;;;5.37;3.75;;;;;;;;;;143728;609;46020;-63
2021/06/02 13:54:17;;;;;;;7.72;3.72;;;;;;;;;;143719;581;47021;-63
2021/06/02 13:57:13;;;;;;;8.25;3.30;;;;;;;;;;143725;616;46012;-63
2021/06/02 13:59:58;;;;;;;7.40;3.50;;;;;;;;;;143726;579;46020;-63
2021/06/02 14:02:28;;;;;;;6.62;3.42;;;;;;;;;;143727;617;46021;-63
2021/06/02 14:05:00;;;;;;;4.93;3.37;;;;;;;;;;143725;619;46022;-63
2021/06/02 14:07:28;;;;;;;6.82;3.53;;;;;;;;;;143726;591;46012;-64
2021/06/02 14:09:55;;;;;;;6.72;3.53;;;;;;;;;;143723;614;46021;-62
2021/06/02 14:12:22;;;;;;;11.15;4.85;;;;;;;;;;143728;604;46020;-63
2021/06/02 14:14:49;;;;;;;6.05;4.03;;;;;;;;;;143725;569;46022;-62
2021/06/02 14:17:17;;;;;;;5.75;3.17;;;;;;;;;;143725;630;46020;-62
2021/06/02 14:19:46;;;;;;;9.60;3.85;;;;;;;;;;143725;569;46020;-62
2021/06/02 14:22:16;;;;;;;5.68;3.67;;;;;;;;;;143727;601;46020;-63
2021/06/02 14:24:43;;;;;;;5.78;3.60;;;;;;;;;;143726;589;46022;-62
2021/06/02 14:27:10;;;;;;;5.40;3.33;;;;;;;;;;143725;586;46012;-62
2021/06/02 14:29:38;;;;;;;4.05;3.40;;;;;;;;;;143726;616;46020;-62
2021/06/02 14:32:06;;;;;;;6.47;3.45;;;;;;;;;;143728;639;46020;-62
2021/06/02 14:34:34;;;;;;;6.20;3.60;;;;;;;;;;143725;610;46022;-62
2021/06/02 14:37:01;;;;;;;7.25;3.30;;;;;;;;;;143724;612;46012;-62
2021/06/02 14:39:28;;;;;;;5.10;3.53;;;;;;;;;;143726;594;46021;-62
2021/06/02 14:41:55;;;;;;;5.82;3.25;;;;;;;;;;143728;597;46020;-62
2021/06/02 14:44:22;;;;;;;6.15;3.35;;;;;;;;;;143718;613;47020;-63
2021/06/02 14:46:50;;;;;;;4.25;3.35;;;;;;;;;;143726;567;46012;-62
2021/06/02 14:49:17;;;;;;;4.55;3.72;;;;;;;;;;143725;589;46020;-63
2021/06/02 14:51:44;;;;;;;6.10;3.53;;;;;;;;;;143727;569;47020;-64
2021/06/02 14:54:11;;;;;;;4.68;3.60;;;;;;;;;;143724;618;47023;-64
2021/06/02 14:56:38;;;;;;;8.43;3.75;;;;;;;;;;143724;616;46012;-63
2021/06/02 14:59:05;;;;;;;5.45;3.70;;;;;;;;;;143726;589;46020;-63
2021/06/02 15:01:32;;;;;;;5.80;3.58;;;;;;;;;;143728;575;46020;-62
2021/06/02 15:04:00;;;;;;;5.80;3.47;;;;;;;;;;143725;651;46052;-63
2021/06/02 15:06:27;;;;;;;4.80;3.25;;;;;;;;;;143724;618;46012;-63
2021/06/02 15:08:54;;;;;;;4.45;3.40;;;;;;;;;;143720;579;46020;-63
2021/06/02 15:11:21;;;;;;;6.12;3.75;;;;;;;;;;143725;577;46020;-63
2021/06/02 15:13:48;;;;;;;5.25;3.22;;;;;;;;;;143726;588;46022;-63
2021/06/02 15:16:19;;;;;;;6.22;3.25;;;;;;;;;;143725;596;46013;-63
2021/06/02 15:18:50;;;;;;;4.55;3.25;;;;;;;;;;143726;565;46020;-64
2021/06/02 15:21:17;;;;;;;3.90;3.28;;;;;;;;;;143728;631;46020;-64
2021/06/02 15:23:44;;;;;;;4.53;3.50;;;;;;;;;;143726;583;46022;-64
2021/06/02 15:26:11;;;;;;;7.32;3.47;;;;;;;;;;143726;575;46012;-64
2021/06/02 15:28:43;;;;;;;5.00;3.35;;;;;;;;;;143727;587;46020;-64
2021/06/02 15:31:12;;;;;;;4.87;3.50;;;;;;;;;;143728;673;46020;-64
2021/06/02 15:33:40;;;;;;;6.03;3.35;;;;;;;;;;143718;592;46022;-63
2021/06/02 15:36:09;;;;;;;6.75;3.35;;;;;;;;;;143724;575;46012;-63
2021/06/02 15:38:36;;;;;;;5.68;4.20;;;;;;;;;;143725;583;46020;-64
2021/06/02 15:41:03;;;;;;;3.78;3.17;;;;;;;;;;143728;564;46020;-65
2021/06/02 15:43:31;;;;;;;7.12;3.42;;;;;;;;;;143726;583;46022;-65
2021/06/02 15:45:59;;;;;;;4.80;3.28;;;;;;;;;;143725;612;46013;-64